• Join FlightAware (Why Join?)
  • Login
  • US Flag 
04:38PM EST


 

Airport Tracker/Info


-or-


 

Live Flight TrackerFlight Track Log ✈ SWA4195 ✈ 28-Jan-2014 ✈ KBHM - KDAL

Flight Track Log - Related Links

Times and Time Zones

All times are in EST time to prevent confusion due to time zone crossing. See the SWA4195 flight status page for this flight to view local times or setup timezone preferences in your user account.

Time Position Orientation Groundspeed Altitude Reporting Facility
EST Latitude Longitude Course Direction KTS MPH feet Rate Location/Type
03:34PM 36.1333 -86.6833 15° North 139 160 1,400  Level Nashville TRACON
03:35PM 36.1833 -86.6667 15° North 185 213 4,800 3,120 Climbing Nashville TRACON
03:36PM 36.1833 -86.7333 270° West 236 272 7,700 3,900 Climbing Nashville TRACON
03:37PM 36.1800 -86.7692 263° West 232 267 10,400 3,600 Climbing Memphis Center
03:38PM 36.1628 -86.8658 258° West 289 333 13,300 3,660 Climbing Memphis Center
03:39PM 36.1444 -86.9719 258° West 309 356 18,000 3,960 Climbing Memphis Center
03:40PM 36.1267 -87.0700 257° West 295 339 21,500 3,000 Climbing Memphis Center
03:41PM 36.1067 -87.1764 257° West 305 351 24,200 2,760 Climbing Memphis Center
03:42PM 36.0858 -87.2850 257° West 318 366 27,200 2,700 Climbing Memphis Center
03:43PM 36.0644 -87.3911 256° West 317 365 29,800 2,340 Climbing Memphis Center
03:44PM 36.0433 -87.4953 256° West 312 359 32,000 1,800 Climbing Memphis Center
03:45PM 36.0222 -87.6017 256° West 315 362 33,600 1,800 Climbing Memphis Center
03:46PM 36.0008 -87.7044 256° West 309 356 35,800 1,800 Climbing Memphis Center
03:47PM 35.9817 -87.7992 256° West 289 333 37,300 1,140 Climbing Memphis Center
03:48PM 35.9617 -87.9011 256° West 298 343 38,200 840 Climbing Memphis Center
03:49PM 35.9381 -88.0092 255° West 317 365 39,100 780 Climbing Memphis Center
03:50PM 35.9136 -88.1217 255° West 331 381 39,900 420 Climbing Memphis Center
03:51PM 35.8886 -88.2500 257° West 345 397 40,000  Climbing Memphis Center
03:52PM 35.8400 -88.3556 240° Southwest 355 409 40,000  Level Memphis Center
03:53PM 35.7889 -88.4578 238° Southwest 351 404 40,000  Level Memphis Center
03:54PM 35.7381 -88.5614 239° Southwest 351 404 40,000  Level Memphis Center
03:55PM 35.6878 -88.6633 239° Southwest 349 402 40,000  Level Memphis Center
03:56PM 35.6369 -88.7656 239° Southwest 349 402 40,000  Level Memphis Center
03:57PM 35.5822 -88.8711 238° Southwest 347 399 40,000  Level Memphis Center
03:58PM 35.5319 -88.9728 239° Southwest 346 398 40,000  Level Memphis Center
03:59PM 35.4803 -89.0756 238° Southwest 350 403 40,000  Level Memphis Center
04:00PM 35.4278 -89.1769 238° Southwest 349 402 40,000  Level Memphis Center
04:01PM 35.3669 -89.2978 238° Southwest 353 406 40,000  Level Memphis Center
04:02PM 35.3142 -89.4011 238° Southwest 355 409 40,000  Level Memphis Center
04:03PM 35.2611 -89.5044 238° Southwest 356 410 40,000  Level Memphis Center
04:04PM 35.2083 -89.6069 238° Southwest 355 409 40,000  Level Memphis Center
04:05PM 35.1556 -89.7097 238° Southwest 355 409 40,000  Level Memphis Center
04:07PM 35.1040 -89.7952 234° Southwest  Level FlightAware Approximate
04:14PM 34.9348 -90.4544 261° West  Level FlightAware Approximate
04:15PM 34.9212 -90.5539 261° West  Level FlightAware Approximate
04:16PM 34.9076 -90.6535 261° West  Level FlightAware Approximate
04:17PM 34.8938 -90.7530 260° West  Level FlightAware Approximate
04:18PM 34.8800 -90.8524 260° West  Level FlightAware Approximate
04:19PM 34.8661 -90.9518 260° West  Level FlightAware Approximate
04:20PM 34.8522 -91.0512 260° West  Level FlightAware Approximate
04:21PM 34.8361 -91.1501 259° West  Level FlightAware Approximate
04:22PM 34.8200 -91.2490 259° West  Level FlightAware Approximate
04:23PM 34.8038 -91.3478 259° West  Level FlightAware Approximate
04:24PM 34.7876 -91.4466 259° West  Level FlightAware Approximate
04:25PM 34.7713 -91.5454 259° West  Level FlightAware Approximate
04:26PM 34.7549 -91.6441 259° West  Level FlightAware Approximate
04:27PM 34.7384 -91.7428 259° West  Level FlightAware Approximate
04:28PM 34.7219 -91.8414 258° West  Level FlightAware Approximate
04:29PM 34.7052 -91.9400 258° West  Level FlightAware Approximate
04:30PM 34.6885 -92.0386 258° West  Level FlightAware Approximate
04:31PM 34.6717 -92.1372 258° West  Level FlightAware Approximate
04:32PM 34.6521 -92.2348 255° West  Level FlightAware Approximate
04:33PM 34.6312 -92.3322 255° West  Level FlightAware Approximate
04:34PM 34.6090 -92.4290 252° West  Level FlightAware Approximate
04:35PM 34.5838 -92.5247 252° West  Level FlightAware Approximate
04:36PM 34.5584 -92.6204 252° West  Level FlightAware Approximate
04:37PM 34.5330 -92.7160 252° West  Level FlightAware Approximate
04:38PM 34.5075 -92.8115 252° West  Level FlightAware Approximate
04:39PM 34.4820 -92.9070 252° West  Level FlightAware Approximate
04:40PM 34.4563 -93.0024 252° West  Level FlightAware Approximate
04:41PM 34.4306 -93.0978 252° West  Level FlightAware Approximate
04:42PM 34.4049 -93.1931 252° West  Level FlightAware Approximate
04:43PM 34.3790 -93.2884 252° West  Level FlightAware Approximate
04:44PM 34.3531 -93.3836 252° West  Level FlightAware Approximate
04:45PM 34.3271 -93.4787 252° West  Level FlightAware Approximate
04:46PM 34.2989 -93.5729 249° West  Level FlightAware Approximate
04:47PM 34.2692 -93.6664 249° West  Level FlightAware Approximate
04:48PM 34.2395 -93.7598 249° West  Level FlightAware Approximate
04:49PM 34.2097 -93.8531 249° West  Level FlightAware Approximate
04:50PM 34.1828 -93.9477 252° West  Level FlightAware Approximate
04:51PM 34.1573 -94.0428 252° West  Level FlightAware Approximate
04:52PM 34.1317 -94.1379 252° West  Level FlightAware Approximate
04:53PM 34.1060 -94.2329 252° West  Level FlightAware Approximate
04:54PM 34.0805 -94.3280 253° West  Level FlightAware Approximate
04:55PM 34.0567 -94.4236 253° West  Level FlightAware Approximate
04:56PM 34.0327 -94.5192 253° West  Level FlightAware Approximate
04:57PM 34.0048 -94.6129 244° Southwest  Level FlightAware Approximate
04:58PM 33.9731 -94.7048 252° West  Level FlightAware Approximate
04:59PM 33.9477 -94.7998 252° West  Level FlightAware Approximate
05:00PM 33.9222 -94.8947 252° West  Level FlightAware Approximate
05:01PM 33.8966 -94.9895 252° West  Level FlightAware Approximate
05:02PM 33.8709 -95.0842 252° West  Level FlightAware Approximate
05:03PM 33.8410 -95.1771 248° West  Level FlightAware Approximate
05:04PM 33.8150 -95.2684 220° Southwest  Level FlightAware Approximate
05:05PM 33.7807 -95.3559 252° West  Level FlightAware Approximate
05:06PM 33.7555 -95.4507 252° West  Level FlightAware Approximate
05:07PM 33.7303 -95.5454 253° West  Level FlightAware Approximate
05:08PM 33.7044 -95.6399 250° West  Level FlightAware Approximate
05:09PM 33.6758 -95.7332 250° West  Level FlightAware Approximate
05:10PM 33.6468 -95.8263 248° West  Level FlightAware Approximate
05:11PM 33.6161 -95.9186 248° West  Level FlightAware Approximate
05:12PM 33.5887 -96.0122 253° West  Level FlightAware Approximate
05:13PM 33.5649 -96.1073 253° West  Level FlightAware Approximate
05:14PM 33.5411 -96.2024 253° West  Level FlightAware Approximate
05:15PM 33.4787 -96.2470 192° South  Level FlightAware Approximate
05:16PM 33.3988 -96.2726 196° South  Level FlightAware Approximate
05:17PM 33.3191 -96.2992 196° South  Level FlightAware Approximate
05:18PM 33.2457 -96.3394 230° Southwest  Level FlightAware Approximate
05:19PM 33.1920 -96.4146 230° Southwest  Level FlightAware Approximate
05:20PM 33.1375 -96.4890 228° Southwest  Level FlightAware Approximate
05:21PM 33.0794 -96.5593 224° Southwest  Level FlightAware Approximate
05:22PM 33.0197 -96.6276 224° Southwest  Level FlightAware Approximate
05:23PM 32.9605 -96.6956 239° Southwest  Level FlightAware Approximate
05:24PM 32.9024 -96.7643 220° Southwest  Level FlightAware Approximate
05:25PM 32.8448 -96.8347 228° Southwest  Level FlightAware Approximate
05:26PM 32.8333 -96.8500 228° Southwest  Level FlightAware Approximate
05:27PM 32.8471 -96.8518 228° Southwest  Level Estimated
05:28PM 32.8471 -96.8518 228° Southwest  Level Estimated
05:29PM 32.8471 -96.8518 228° Southwest  Level Estimated
05:30PM 32.8471 -96.8518 228° Southwest  Level Estimated
05:31PM 32.8471 -96.8518 228° Southwest  Level Estimated
05:32PM 32.8471 -96.8518 228° Southwest  Level Estimated
05:33PM 32.8471 -96.8518 228° Southwest  Level Estimated
05:34PM 32.8471 -96.8518 228° Southwest  Level Estimated
05:35PM 32.8471 -96.8518 228° Southwest  Level Estimated
05:36PM 32.8471 -96.8518 228° Southwest  Level Estimated
05:37PM 32.8471 -96.8518 228° Southwest  Level Estimated
05:38PM 32.8471 -96.8518 228° Southwest  Level Estimated
05:39PM 32.8471 -96.8518 228° Southwest  Level Estimated
05:40PM 32.8471 -96.8518 228° Southwest  Level Estimated
05:41PM 32.8471 -96.8518 228° Southwest  Level Estimated
05:42PM 32.8471 -96.8518 228° Southwest  Level Estimated
05:43PM 32.8471 -96.8518 228° Southwest  Level Estimated
05:44PM 32.8471 -96.8518 228° Southwest  Level Estimated
05:45PM 32.8471 -96.8518 228° Southwest  Level Estimated
05:46PM 32.8471 -96.8518 228° Southwest  Level Estimated
05:47PM 32.8471 -96.8518 228° Southwest  Level Estimated
05:48PM 32.8471 -96.8518 228° Southwest  Level Estimated
05:49PM 32.8471 -96.8518 228° Southwest  Level Estimated
05:50PM 32.8471 -96.8518 228° Southwest  Level Estimated
05:51PM 32.8471 -96.8518 228° Southwest  Level Estimated
05:52PM 32.8471 -96.8518 228° Southwest  Level Estimated
05:53PM 32.8471 -96.8518 228° Southwest  Level Estimated
05:54PM 32.8471 -96.8518 228° Southwest  Level Estimated
05:55PM 32.8471 -96.8518 228° Southwest  Level Estimated
05:56PM 32.8471 -96.8518 228° Southwest  Level Estimated
05:57PM 32.8471 -96.8518 228° Southwest  Level Estimated
05:58PM 32.8471 -96.8518 228° Southwest  Level Estimated
05:59PM 32.8471 -96.8518 228° Southwest  Level Estimated
06:00PM 32.8471 -96.8518 228° Southwest  Level Estimated
06:01PM 32.8471 -96.8518 228° Southwest  Level Estimated
06:02PM 32.8471 -96.8518 228° Southwest  Level Estimated
06:03PM 32.8471 -96.8518 228° Southwest  Level Estimated
06:04PM 32.8471 -96.8518 228° Southwest  Level Estimated
06:05PM 32.8471 -96.8518 228° Southwest  Level Estimated
06:06PM 32.8471 -96.8518 228° Southwest  Level Estimated
06:07PM 32.8471 -96.8518 228° Southwest  Level Estimated
06:08PM 32.8471 -96.8518 228° Southwest  Level Estimated
06:09PM 32.8471 -96.8518 228° Southwest  Level Estimated
06:10PM 32.8471 -96.8518 228° Southwest  Level Estimated
06:11PM 32.8471 -96.8518 228° Southwest  Level Estimated
06:12PM 32.8471 -96.8518 228° Southwest  Level Estimated
06:13PM 32.8471 -96.8518 228° Southwest  Level Estimated
06:14PM 32.8471 -96.8518 228° Southwest  Level Estimated
06:15PM 32.8471 -96.8518 228° Southwest  Level Estimated
06:16PM 32.8471 -96.8518 228° Southwest  Level Estimated
06:17PM 32.8471 -96.8518 228° Southwest  Level Estimated
06:18PM 32.8471 -96.8518 228° Southwest  Level Estimated